Cape Hatteras, North Carolina
Current Conditions -  °F | °C
As of 4:51 AM on Saturday 22 Nov 2014 (Local Time) from KHSE Reporting Station
Clear Clear  
Wind Chill:   Ceiling: Unl
Heat Index:   Visibility: 10mi
Dew Point:   Wind: 6mph
Humidity: 73%   Direction: 20°NNE
Pressure: 30.53"   Gusts: NA
Location:  35.23°N, 75.62°W
Report Text: KHSE 220951Z AUTO 02005KT 10SM CLR 04/00 A3053 RMK AO2 SLP337 T00440000 TSNO
Loading
Personal Weather Stations






























Interactive Weather Map New forecast layout! Learn more

10-Day Weather Forecast

Advertisements
Track Severe Weather on mobile